Main page
METAR-TAF:

METAR-TAF

Airports :

Jordan Airport

Jordan, Montana, United States

latitude: 47-19-33N, longitude: 106-56-51W, elevation: 2660 ft

Current weather observation

The report was made 26 minutes ago, at 18:48 UTC
Wind 6 mph from the East/Southeast
Temperature 63°F
Humidity 34%
Pressure 29.77 in. Hg

METAR: KJDN 241848Z AUTO 12005KT 17/01 A2977 RMK AO1 SLP087 T01670006

Time: 13:14 (19:14 UTC)


TAF: missing

Weather observations and forecasts of more than 4000 airports (METAR and TAF reports).

The available stations are represented by yellow and red dots on the map.

Hover mouse over dot to see the name of the station.

Then click to see weather observations and forecasts.

To change the map : click on the green buttons with a black cross to zoom in, on the green button with a dash to zoom out, or on the green arrows for adjacent maps.


METAR-TAF: